sensor_id;sensor_type;location;lat;lon;timestamp;temperature;humidity
31443;SHT31;18065;55.876;9.830;2023-11-19T00:00:33;21.22;53.51
31443;SHT31;18065;55.876;9.830;2023-11-19T00:03:02;21.25;53.39
31443;SHT31;18065;55.876;9.830;2023-11-19T00:05:31;21.27;53.50
31443;SHT31;18065;55.876;9.830;2023-11-19T00:08:00;21.27;53.51
31443;SHT31;18065;55.876;9.830;2023-11-19T00:10:28;21.29;53.37
31443;SHT31;18065;55.876;9.830;2023-11-19T00:12:57;21.29;53.39
31443;SHT31;18065;55.876;9.830;2023-11-19T00:15:26;21.31;53.39
31443;SHT31;18065;55.876;9.830;2023-11-19T00:17:57;21.31;53.28
31443;SHT31;18065;55.876;9.830;2023-11-19T00:20:28;21.28;53.47
31443;SHT31;18065;55.876;9.830;2023-11-19T00:22:57;21.31;53.42
31443;SHT31;18065;55.876;9.830;2023-11-19T00:25:27;21.29;53.35
31443;SHT31;18065;55.876;9.830;2023-11-19T00:27:55;21.31;53.32
31443;SHT31;18065;55.876;9.830;2023-11-19T00:30:25;21.28;53.39
31443;SHT31;18065;55.876;9.830;2023-11-19T00:32:53;21.27;53.28
31443;SHT31;18065;55.876;9.830;2023-11-19T00:35:25;21.25;53.33
31443;SHT31;18065;55.876;9.830;2023-11-19T00:37:53;21.25;53.32
31443;SHT31;18065;55.876;9.830;2023-11-19T00:40:24;21.23;53.34
31443;SHT31;18065;55.876;9.830;2023-11-19T00:42:52;21.25;53.34
31443;SHT31;18065;55.876;9.830;2023-11-19T00:45:21;21.21;53.34
31443;SHT31;18065;55.876;9.830;2023-11-19T00:47:50;21.16;53.46
31443;SHT31;18065;55.876;9.830;2023-11-19T00:50:21;21.14;53.65
31443;SHT31;18065;55.876;9.830;2023-11-19T00:52:53;21.14;53.78
31443;SHT31;18065;55.876;9.830;2023-11-19T00:55:22;21.09;53.92
31443;SHT31;18065;55.876;9.830;2023-11-19T00:57:50;21.05;53.80
31443;SHT31;18065;55.876;9.830;2023-11-19T01:00:19;21.05;53.70
31443;SHT31;18065;55.876;9.830;2023-11-19T01:02:50;21.01;53.64
31443;SHT31;18065;55.876;9.830;2023-11-19T01:05:18;20.97;53.96
31443;SHT31;18065;55.876;9.830;2023-11-19T01:07:49;20.97;54.11
31443;SHT31;18065;55.876;9.830;2023-11-19T01:10:21;20.95;53.69
31443;SHT31;18065;55.876;9.830;2023-11-19T01:12:51;20.94;53.73
31443;SHT31;18065;55.876;9.830;2023-11-19T01:15:20;20.91;53.88
31443;SHT31;18065;55.876;9.830;2023-11-19T01:17:49;20.87;54.05
31443;SHT31;18065;55.876;9.830;2023-11-19T01:20:17;20.83;54.01
31443;SHT31;18065;55.876;9.830;2023-11-19T01:22:46;20.81;54.30
31443;SHT31;18065;55.876;9.830;2023-11-19T01:25:15;20.76;54.45
31443;SHT31;18065;55.876;9.830;2023-11-19T01:27:47;20.73;54.63
31443;SHT31;18065;55.876;9.830;2023-11-19T01:30:15;20.63;54.74
31443;SHT31;18065;55.876;9.830;2023-11-19T01:32:45;20.59;55.08
31443;SHT31;18065;55.876;9.830;2023-11-19T01:35:14;20.66;54.50
31443;SHT31;18065;55.876;9.830;2023-11-19T01:37:42;20.71;54.39
31443;SHT31;18065;55.876;9.830;2023-11-19T01:40:12;20.81;54.04
31443;SHT31;18065;55.876;9.830;2023-11-19T01:42:41;20.84;54.16
31443;SHT31;18065;55.876;9.830;2023-11-19T01:45:22;20.88;53.81
31443;SHT31;18065;55.876;9.830;2023-11-19T01:47:56;20.92;53.64
31443;SHT31;18065;55.876;9.830;2023-11-19T01:50:25;20.94;54.03
31443;SHT31;18065;55.876;9.830;2023-11-19T01:52:55;20.95;53.86
31443;SHT31;18065;55.876;9.830;2023-11-19T01:55:27;20.97;53.74
31443;SHT31;18065;55.876;9.830;2023-11-19T01:58:00;20.95;53.71
31443;SHT31;18065;55.876;9.830;2023-11-19T02:00:32;20.94;53.62
31443;SHT31;18065;55.876;9.830;2023-11-19T02:03:02;20.97;53.65
31443;SHT31;18065;55.876;9.830;2023-11-19T02:05:32;20.95;53.72
31443;SHT31;18065;55.876;9.830;2023-11-19T02:08:01;20.94;53.90
31443;SHT31;18065;55.876;9.830;2023-11-19T02:10:30;20.95;53.59
31443;SHT31;18065;55.876;9.830;2023-11-19T02:12:58;20.95;53.82
31443;SHT31;18065;55.876;9.830;2023-11-19T02:15:28;20.94;53.84
31443;SHT31;18065;55.876;9.830;2023-11-19T02:18:17;20.85;53.77
31443;SHT31;18065;55.876;9.830;2023-11-19T02:20:47;20.88;54.03
31443;SHT31;18065;55.876;9.830;2023-11-19T02:23:16;20.87;53.71
31443;SHT31;18065;55.876;9.830;2023-11-19T02:25:51;20.84;53.62
31443;SHT31;18065;55.876;9.830;2023-11-19T02:28:26;20.81;53.91
31443;SHT31;18065;55.876;9.830;2023-11-19T02:30:55;20.78;53.83
31443;SHT31;18065;55.876;9.830;2023-11-19T02:33:24;20.77;54.09
31443;SHT31;18065;55.876;9.830;2023-11-19T02:35:52;20.76;53.93
31443;SHT31;18065;55.876;9.830;2023-11-19T02:38:21;20.73;54.20
31443;SHT31;18065;55.876;9.830;2023-11-19T02:40:51;20.74;54.22
31443;SHT31;18065;55.876;9.830;2023-11-19T02:43:20;20.71;54.23
31443;SHT31;18065;55.876;9.830;2023-11-19T02:45:51;20.69;54.47
31443;SHT31;18065;55.876;9.830;2023-11-19T02:48:21;20.67;54.48
31443;SHT31;18065;55.876;9.830;2023-11-19T02:50:50;20.64;54.65
31443;SHT31;18065;55.876;9.830;2023-11-19T02:53:19;20.66;54.58
31443;SHT31;18065;55.876;9.830;2023-11-19T02:55:48;20.60;54.90
31443;SHT31;18065;55.876;9.830;2023-11-19T02:58:17;20.56;54.74
31443;SHT31;18065;55.876;9.830;2023-11-19T03:00:53;20.57;54.85
31443;SHT31;18065;55.876;9.830;2023-11-19T03:03:24;20.56;54.89
31443;SHT31;18065;55.876;9.830;2023-11-19T03:05:56;20.59;55.13
31443;SHT31;18065;55.876;9.830;2023-11-19T03:08:25;20.54;55.16
31443;SHT31;18065;55.876;9.830;2023-11-19T03:10:53;20.54;54.99
31443;SHT31;18065;55.876;9.830;2023-11-19T03:13:22;20.56;55.12
31443;SHT31;18065;55.876;9.830;2023-11-19T03:15:53;20.51;55.06
31443;SHT31;18065;55.876;9.830;2023-11-19T03:18:22;20.51;55.22
31443;SHT31;18065;55.876;9.830;2023-11-19T03:20:51;20.49;55.27
31443;SHT31;18065;55.876;9.830;2023-11-19T03:23:19;20.51;55.29
31443;SHT31;18065;55.876;9.830;2023-11-19T03:25:48;20.47;55.20
31443;SHT31;18065;55.876;9.830;2023-11-19T03:28:17;20.49;55.25
31443;SHT31;18065;55.876;9.830;2023-11-19T03:30:45;20.43;55.06
31443;SHT31;18065;55.876;9.830;2023-11-19T03:33:17;20.46;55.33
31443;SHT31;18065;55.876;9.830;2023-11-19T03:35:45;20.43;55.31
31443;SHT31;18065;55.876;9.830;2023-11-19T03:38:14;20.47;55.34
31443;SHT31;18065;55.876;9.830;2023-11-19T03:40:43;20.43;55.40
31443;SHT31;18065;55.876;9.830;2023-11-19T03:43:11;20.41;55.46
31443;SHT31;18065;55.876;9.830;2023-11-19T03:45:40;20.43;55.46
31443;SHT31;18065;55.876;9.830;2023-11-19T03:48:09;20.41;55.40
31443;SHT31;18065;55.876;9.830;2023-11-19T03:50:40;20.41;55.37
31443;SHT31;18065;55.876;9.830;2023-11-19T03:53:09;20.41;55.46
31443;SHT31;18065;55.876;9.830;2023-11-19T03:55:37;20.41;55.50
31443;SHT31;18065;55.876;9.830;2023-11-19T03:58:06;20.41;55.52
31443;SHT31;18065;55.876;9.830;2023-11-19T04:00:35;20.41;55.44
31443;SHT31;18065;55.876;9.830;2023-11-19T04:03:03;20.37;55.62
31443;SHT31;18065;55.876;9.830;2023-11-19T04:05:32;20.39;55.49
31443;SHT31;18065;55.876;9.830;2023-11-19T04:08:04;20.41;55.43
31443;SHT31;18065;55.876;9.830;2023-11-19T04:10:32;20.40;55.21
31443;SHT31;18065;55.876;9.830;2023-11-19T04:13:01;20.37;55.33
31443;SHT31;18065;55.876;9.830;2023-11-19T04:15:30;20.39;55.62
31443;SHT31;18065;55.876;9.830;2023-11-19T04:17:58;20.37;55.63
31443;SHT31;18065;55.876;9.830;2023-11-19T04:20:27;20.40;55.60
31443;SHT31;18065;55.876;9.830;2023-11-19T04:22:57;20.37;55.37
31443;SHT31;18065;55.876;9.830;2023-11-19T04:25:29;20.37;55.58
31443;SHT31;18065;55.876;9.830;2023-11-19T04:27:57;20.37;55.62
31443;SHT31;18065;55.876;9.830;2023-11-19T04:30:26;20.36;55.78
31443;SHT31;18065;55.876;9.830;2023-11-19T04:32:57;20.37;55.77
31443;SHT31;18065;55.876;9.830;2023-11-19T04:35:26;20.40;55.67
31443;SHT31;18065;55.876;9.830;2023-11-19T04:37:57;20.39;55.99
31443;SHT31;18065;55.876;9.830;2023-11-19T04:40:29;20.39;55.79
31443;SHT31;18065;55.876;9.830;2023-11-19T04:42:58;20.39;55.70
31443;SHT31;18065;55.876;9.830;2023-11-19T04:45:27;20.39;55.86
31443;SHT31;18065;55.876;9.830;2023-11-19T04:47:56;20.37;55.85
31443;SHT31;18065;55.876;9.830;2023-11-19T04:50:25;20.37;55.71
31443;SHT31;18065;55.876;9.830;2023-11-19T04:52:54;20.37;55.90
31443;SHT31;18065;55.876;9.830;2023-11-19T04:55:23;20.34;55.77
31443;SHT31;18065;55.876;9.830;2023-11-19T04:57:56;20.36;55.90
31443;SHT31;18065;55.876;9.830;2023-11-19T05:00:25;20.33;55.79
31443;SHT31;18065;55.876;9.830;2023-11-19T05:02:54;20.32;55.76
31443;SHT31;18065;55.876;9.830;2023-11-19T05:05:22;20.33;55.78
31443;SHT31;18065;55.876;9.830;2023-11-19T05:07:51;20.33;55.63
31443;SHT31;18065;55.876;9.830;2023-11-19T05:10:20;20.33;55.90
31443;SHT31;18065;55.876;9.830;2023-11-19T05:12:50;20.37;55.84
31443;SHT31;18065;55.876;9.830;2023-11-19T05:15:24;20.34;55.85
31443;SHT31;18065;55.876;9.830;2023-11-19T05:17:53;20.32;55.52
31443;SHT31;18065;55.876;9.830;2023-11-19T05:20:21;20.32;55.92
31443;SHT31;18065;55.876;9.830;2023-11-19T05:22:50;20.33;55.89
31443;SHT31;18065;55.876;9.830;2023-11-19T05:25:19;20.33;55.96
31443;SHT31;18065;55.876;9.830;2023-11-19T05:27:48;20.36;55.91
31443;SHT31;18065;55.876;9.830;2023-11-19T05:30:17;20.33;55.84
31443;SHT31;18065;55.876;9.830;2023-11-19T05:32:48;20.33;55.94
31443;SHT31;18065;55.876;9.830;2023-11-19T05:35:17;20.34;55.79
31443;SHT31;18065;55.876;9.830;2023-11-19T05:37:45;20.33;55.91
31443;SHT31;18065;55.876;9.830;2023-11-19T05:40:15;20.32;55.97
31443;SHT31;18065;55.876;9.830;2023-11-19T05:42:46;20.30;55.99
31443;SHT31;18065;55.876;9.830;2023-11-19T05:45:14;20.47;55.31
31443;SHT31;18065;55.876;9.830;2023-11-19T05:47:43;20.60;55.03
31443;SHT31;18065;55.876;9.830;2023-11-19T05:50:15;20.71;54.78
31443;SHT31;18065;55.876;9.830;2023-11-19T05:52:43;20.76;54.44
31443;SHT31;18065;55.876;9.830;2023-11-19T05:55:12;20.90;54.28
31443;SHT31;18065;55.876;9.830;2023-11-19T05:57:41;20.99;53.79
31443;SHT31;18065;55.876;9.830;2023-11-19T06:00:11;21.04;53.67
31443;SHT31;18065;55.876;9.830;2023-11-19T06:02:41;21.08;53.52
31443;SHT31;18065;55.876;9.830;2023-11-19T06:05:09;21.15;53.25
31443;SHT31;18065;55.876;9.830;2023-11-19T06:07:41;21.18;53.34
31443;SHT31;18065;55.876;9.830;2023-11-19T06:10:10;21.22;53.38
31443;SHT31;18065;55.876;9.830;2023-11-19T06:12:42;21.32;53.19
31443;SHT31;18065;55.876;9.830;2023-11-19T06:15:11;21.56;52.66
31443;SHT31;18065;55.876;9.830;2023-11-19T06:17:40;21.76;52.02
31443;SHT31;18065;55.876;9.830;2023-11-19T06:20:10;21.87;51.47
31443;SHT31;18065;55.876;9.830;2023-11-19T06:22:42;21.96;51.15
31443;SHT31;18065;55.876;9.830;2023-11-19T06:25:11;22.00;51.16
31443;SHT31;18065;55.876;9.830;2023-11-19T06:27:40;22.00;51.05
31443;SHT31;18065;55.876;9.830;2023-11-19T06:30:10;22.01;51.07
31443;SHT31;18065;55.876;9.830;2023-11-19T06:32:39;21.98;51.13
31443;SHT31;18065;55.876;9.830;2023-11-19T06:35:08;21.94;51.19
31443;SHT31;18065;55.876;9.830;2023-11-19T06:37:38;21.93;51.22
31443;SHT31;18065;55.876;9.830;2023-11-19T06:40:11;21.90;51.11
31443;SHT31;18065;55.876;9.830;2023-11-19T06:42:41;21.86;51.46
31443;SHT31;18065;55.876;9.830;2023-11-19T06:45:10;21.81;51.41
31443;SHT31;18065;55.876;9.830;2023-11-19T06:47:38;21.79;51.46
31443;SHT31;18065;55.876;9.830;2023-11-19T06:50:07;21.73;51.79
31443;SHT31;18065;55.876;9.830;2023-11-19T06:52:38;21.70;51.78
31443;SHT31;18065;55.876;9.830;2023-11-19T06:55:10;21.66;51.77
31443;SHT31;18065;55.876;9.830;2023-11-19T06:57:38;21.59;52.08
31443;SHT31;18065;55.876;9.830;2023-11-19T07:00:08;21.55;52.03
31443;SHT31;18065;55.876;9.830;2023-11-19T07:02:37;21.50;52.12
31443;SHT31;18065;55.876;9.830;2023-11-19T07:05:07;21.45;52.36
31443;SHT31;18065;55.876;9.830;2023-11-19T07:07:35;21.39;52.24
31443;SHT31;18065;55.876;9.830;2023-11-19T07:10:06;21.34;52.34
31443;SHT31;18065;55.876;9.830;2023-11-19T07:12:38;21.28;52.79
31443;SHT31;18065;55.876;9.830;2023-11-19T07:15:08;21.25;52.54
31443;SHT31;18065;55.876;9.830;2023-11-19T07:17:38;21.22;52.94
31443;SHT31;18065;55.876;9.830;2023-11-19T07:20:10;21.14;53.14
31443;SHT31;18065;55.876;9.830;2023-11-19T07:22:42;21.07;53.35
31443;SHT31;18065;55.876;9.830;2023-11-19T07:25:12;21.02;53.49
31443;SHT31;18065;55.876;9.830;2023-11-19T07:27:44;20.97;53.66
31443;SHT31;18065;55.876;9.830;2023-11-19T07:30:13;20.88;54.27
31443;SHT31;18065;55.876;9.830;2023-11-19T07:32:43;20.95;54.14
31443;SHT31;18065;55.876;9.830;2023-11-19T07:35:12;20.99;53.94
31443;SHT31;18065;55.876;9.830;2023-11-19T07:37:41;21.04;53.75
31443;SHT31;18065;55.876;9.830;2023-11-19T07:40:12;21.07;53.79
31443;SHT31;18065;55.876;9.830;2023-11-19T07:42:40;21.07;53.70
31443;SHT31;18065;55.876;9.830;2023-11-19T07:45:12;21.09;53.34
31443;SHT31;18065;55.876;9.830;2023-11-19T07:47:41;21.15;53.24
31443;SHT31;18065;55.876;9.830;2023-11-19T07:50:10;21.16;53.37
31443;SHT31;18065;55.876;9.830;2023-11-19T07:52:39;21.16;53.20
31443;SHT31;18065;55.876;9.830;2023-11-19T07:55:08;21.14;53.29
31443;SHT31;18065;55.876;9.830;2023-11-19T07:57:39;21.16;53.27
31443;SHT31;18065;55.876;9.830;2023-11-19T08:00:12;21.18;53.29
31443;SHT31;18065;55.876;9.830;2023-11-19T08:02:41;21.18;53.31
31443;SHT31;18065;55.876;9.830;2023-11-19T08:05:10;21.19;53.23
31443;SHT31;18065;55.876;9.830;2023-11-19T08:07:39;21.22;53.20
31443;SHT31;18065;55.876;9.830;2023-11-19T08:10:08;21.21;53.24
31443;SHT31;18065;55.876;9.830;2023-11-19T08:12:37;21.19;53.21
31443;SHT31;18065;55.876;9.830;2023-11-19T08:15:07;21.16;53.32
31443;SHT31;18065;55.876;9.830;2023-11-19T08:17:38;21.15;53.25
31443;SHT31;18065;55.876;9.830;2023-11-19T08:20:09;21.14;53.26
31443;SHT31;18065;55.876;9.830;2023-11-19T08:22:37;21.09;53.25
31443;SHT31;18065;55.876;9.830;2023-11-19T08:25:07;21.08;53.41
31443;SHT31;18065;55.876;9.830;2023-11-19T08:27:36;21.02;53.73
31443;SHT31;18065;55.876;9.830;2023-11-19T08:30:06;21.02;53.62
31443;SHT31;18065;55.876;9.830;2023-11-19T08:32:37;20.95;53.79
31443;SHT31;18065;55.876;9.830;2023-11-19T08:35:07;20.94;53.83
31443;SHT31;18065;55.876;9.830;2023-11-19T08:37:36;20.90;53.82
31443;SHT31;18065;55.876;9.830;2023-11-19T08:40:06;20.88;53.69
31443;SHT31;18065;55.876;9.830;2023-11-19T08:42:35;20.84;53.98
31443;SHT31;18065;55.876;9.830;2023-11-19T08:45:05;20.81;54.06
31443;SHT31;18065;55.876;9.830;2023-11-19T08:47:38;20.78;53.96
31443;SHT31;18065;55.876;9.830;2023-11-19T08:50:07;20.80;54.00
31443;SHT31;18065;55.876;9.830;2023-11-19T08:52:36;20.77;54.02
31443;SHT31;18065;55.876;9.830;2023-11-19T08:55:06;20.74;54.13
31443;SHT31;18065;55.876;9.830;2023-11-19T08:57:35;20.74;54.09
31443;SHT31;18065;55.876;9.830;2023-11-19T09:00:05;20.70;54.31
31443;SHT31;18065;55.876;9.830;2023-11-19T09:02:38;20.70;54.31
31443;SHT31;18065;55.876;9.830;2023-11-19T09:05:10;20.67;54.42
31443;SHT31;18065;55.876;9.830;2023-11-19T09:07:39;20.66;54.38
31443;SHT31;18065;55.876;9.830;2023-11-19T09:10:08;20.66;54.41
31443;SHT31;18065;55.876;9.830;2023-11-19T09:12:37;20.69;55.38
31443;SHT31;18065;55.876;9.830;2023-11-19T09:15:07;20.73;56.29
31443;SHT31;18065;55.876;9.830;2023-11-19T09:17:38;20.70;56.44
31443;SHT31;18065;55.876;9.830;2023-11-19T09:20:08;20.77;56.33
31443;SHT31;18065;55.876;9.830;2023-11-19T09:22:41;20.80;56.38
31443;SHT31;18065;55.876;9.830;2023-11-19T09:25:09;20.77;56.11
31443;SHT31;18065;55.876;9.830;2023-11-19T09:27:42;20.78;55.74
31443;SHT31;18065;55.876;9.830;2023-11-19T09:30:12;24.49;47.67
31443;SHT31;18065;55.876;9.830;2023-11-19T09:32:44;27.89;39.63
31443;SHT31;18065;55.876;9.830;2023-11-19T09:35:12;27.90;39.46
31443;SHT31;18065;55.876;9.830;2023-11-19T09:37:42;27.51;40.12
31443;SHT31;18065;55.876;9.830;2023-11-19T09:40:11;27.02;41.03
31443;SHT31;18065;55.876;9.830;2023-11-19T09:42:43;26.56;42.01
31443;SHT31;18065;55.876;9.830;2023-11-19T09:45:14;26.18;42.79
31443;SHT31;18065;55.876;9.830;2023-11-19T09:47:46;25.91;43.40
31443;SHT31;18065;55.876;9.830;2023-11-19T09:50:17;26.34;42.60
31443;SHT31;18065;55.876;9.830;2023-11-19T09:52:47;27.34;41.00
31443;SHT31;18065;55.876;9.830;2023-11-19T09:55:16;26.90;41.82
31443;SHT31;18065;55.876;9.830;2023-11-19T09:57:47;27.13;41.76
31443;SHT31;18065;55.876;9.830;2023-11-19T10:00:17;28.10;39.61
31443;SHT31;18065;55.876;9.830;2023-11-19T10:02:50;27.88;40.00
31443;SHT31;18065;55.876;9.830;2023-11-19T10:05:20;27.44;40.97
31443;SHT31;18065;55.876;9.830;2023-11-19T10:07:49;27.04;41.77
31443;SHT31;18065;55.876;9.830;2023-11-19T10:10:18;27.10;41.78
31443;SHT31;18065;55.876;9.830;2023-11-19T10:12:47;26.93;42.24
31443;SHT31;18065;55.876;9.830;2023-11-19T10:15:20;26.53;42.99
31443;SHT31;18065;55.876;9.830;2023-11-19T10:17:52;26.21;43.73
31443;SHT31;18065;55.876;9.830;2023-11-19T10:20:23;25.83;44.41
31443;SHT31;18065;55.876;9.830;2023-11-19T10:22:52;25.58;44.96
31443;SHT31;18065;55.876;9.830;2023-11-19T10:25:23;25.32;45.40
31443;SHT31;18065;55.876;9.830;2023-11-19T10:27:52;25.02;46.02
31443;SHT31;18065;55.876;9.830;2023-11-19T10:30:22;24.75;46.52
31443;SHT31;18065;55.876;9.830;2023-11-19T10:33:09;24.49;47.07
31443;SHT31;18065;55.876;9.830;2023-11-19T10:35:51;24.26;47.58
31443;SHT31;18065;55.876;9.830;2023-11-19T10:38:22;24.08;47.96
31443;SHT31;18065;55.876;9.830;2023-11-19T10:40:52;23.92;48.30
31443;SHT31;18065;55.876;9.830;2023-11-19T10:43:21;23.82;48.47
31443;SHT31;18065;55.876;9.830;2023-11-19T10:45:51;23.65;48.84
31443;SHT31;18065;55.876;9.830;2023-11-19T10:48:22;23.55;49.02
31443;SHT31;18065;55.876;9.830;2023-11-19T10:50:54;23.73;48.73
31443;SHT31;18065;55.876;9.830;2023-11-19T10:53:23;23.95;48.16
31443;SHT31;18065;55.876;9.830;2023-11-19T10:55:56;23.89;48.13
31443;SHT31;18065;55.876;9.830;2023-11-19T10:58:28;23.84;48.31
31443;SHT31;18065;55.876;9.830;2023-11-19T11:01:01;23.75;48.44
31443;SHT31;18065;55.876;9.830;2023-11-19T11:03:39;23.66;48.71
31443;SHT31;18065;55.876;9.830;2023-11-19T11:06:08;23.53;48.94
31443;SHT31;18065;55.876;9.830;2023-11-19T11:08:37;23.44;49.09
31443;SHT31;18065;55.876;9.830;2023-11-19T11:11:08;23.34;49.34
31443;SHT31;18065;55.876;9.830;2023-11-19T11:13:42;23.28;49.41
31443;SHT31;18065;55.876;9.830;2023-11-19T11:16:10;23.23;49.43
31443;SHT31;18065;55.876;9.830;2023-11-19T11:18:42;23.14;49.69
31443;SHT31;18065;55.876;9.830;2023-11-19T11:21:14;23.02;50.01
31443;SHT31;18065;55.876;9.830;2023-11-19T11:24:13;22.89;50.48
31443;SHT31;18065;55.876;9.830;2023-11-19T11:26:57;22.85;50.66
31443;SHT31;18065;55.876;9.830;2023-11-19T11:29:30;22.69;51.13
31443;SHT31;18065;55.876;9.830;2023-11-19T11:32:08;22.68;51.25
31443;SHT31;18065;55.876;9.830;2023-11-19T11:35:02;22.61;51.38
31443;SHT31;18065;55.876;9.830;2023-11-19T11:37:39;22.55;51.73
31443;SHT31;18065;55.876;9.830;2023-11-19T11:40:14;22.48;51.77
31443;SHT31;18065;55.876;9.830;2023-11-19T11:42:43;22.44;51.79
31443;SHT31;18065;55.876;9.830;2023-11-19T11:45:13;22.86;51.01
31443;SHT31;18065;55.876;9.830;2023-11-19T11:48:04;23.03;50.72
31443;SHT31;18065;55.876;9.830;2023-11-19T11:50:36;23.00;50.63
31443;SHT31;18065;55.876;9.830;2023-11-19T11:53:19;23.00;50.75
31443;SHT31;18065;55.876;9.830;2023-11-19T11:55:58;22.96;50.84
31443;SHT31;18065;55.876;9.830;2023-11-19T11:58:35;22.90;50.92
31443;SHT31;18065;55.876;9.830;2023-11-19T12:01:04;22.86;50.90
31443;SHT31;18065;55.876;9.830;2023-11-19T12:03:37;22.82;51.03
31443;SHT31;18065;55.876;9.830;2023-11-19T12:06:09;22.73;51.07
31443;SHT31;18065;55.876;9.830;2023-11-19T12:08:39;22.64;51.12
31443;SHT31;18065;55.876;9.830;2023-11-19T12:11:10;22.61;51.11
31443;SHT31;18065;55.876;9.830;2023-11-19T12:13:54;22.56;51.09
31443;SHT31;18065;55.876;9.830;2023-11-19T12:16:28;22.52;51.32
31443;SHT31;18065;55.876;9.830;2023-11-19T12:19:03;22.42;51.42
31443;SHT31;18065;55.876;9.830;2023-11-19T12:21:36;22.44;51.40
31443;SHT31;18065;55.876;9.830;2023-11-19T12:24:06;22.42;51.40
31443;SHT31;18065;55.876;9.830;2023-11-19T12:26:38;22.38;51.35
31443;SHT31;18065;55.876;9.830;2023-11-19T12:29:08;22.32;51.39
31443;SHT31;18065;55.876;9.830;2023-11-19T12:31:37;22.34;51.59
31443;SHT31;18065;55.876;9.830;2023-11-19T12:34:07;22.25;51.66
31443;SHT31;18065;55.876;9.830;2023-11-19T12:36:41;22.24;51.80
31443;SHT31;18065;55.876;9.830;2023-11-19T12:39:10;22.21;51.84
31443;SHT31;18065;55.876;9.830;2023-11-19T12:41:53;22.14;51.92
31443;SHT31;18065;55.876;9.830;2023-11-19T12:44:25;22.13;51.99
31443;SHT31;18065;55.876;9.830;2023-11-19T12:47:04;22.08;52.06
31443;SHT31;18065;55.876;9.830;2023-11-19T12:49:33;22.08;52.15
31443;SHT31;18065;55.876;9.830;2023-11-19T12:52:11;22.06;52.19
31443;SHT31;18065;55.876;9.830;2023-11-19T12:54:40;22.06;52.22
31443;SHT31;18065;55.876;9.830;2023-11-19T12:57:09;22.03;52.20
31443;SHT31;18065;55.876;9.830;2023-11-19T12:59:38;22.01;52.26
31443;SHT31;18065;55.876;9.830;2023-11-19T13:02:07;22.00;52.27
31443;SHT31;18065;55.876;9.830;2023-11-19T13:04:36;21.98;52.32
31443;SHT31;18065;55.876;9.830;2023-11-19T13:07:07;21.97;52.32
31443;SHT31;18065;55.876;9.830;2023-11-19T13:09:36;21.94;52.48
31443;SHT31;18065;55.876;9.830;2023-11-19T13:12:13;21.92;52.52
31443;SHT31;18065;55.876;9.830;2023-11-19T13:14:42;21.93;52.66
31443;SHT31;18065;55.876;9.830;2023-11-19T13:17:13;21.87;52.60
31443;SHT31;18065;55.876;9.830;2023-11-19T13:19:42;21.86;52.73
31443;SHT31;18065;55.876;9.830;2023-11-19T13:22:14;21.84;52.69
31443;SHT31;18065;55.876;9.830;2023-11-19T13:24:42;21.80;52.80
31443;SHT31;18065;55.876;9.830;2023-11-19T13:27:11;21.81;52.74
31443;SHT31;18065;55.876;9.830;2023-11-19T13:29:40;21.79;52.79
31443;SHT31;18065;55.876;9.830;2023-11-19T13:32:09;21.74;52.94
31443;SHT31;18065;55.876;9.830;2023-11-19T13:34:38;21.77;52.89
31443;SHT31;18065;55.876;9.830;2023-11-19T13:37:06;21.76;52.99
31443;SHT31;18065;55.876;9.830;2023-11-19T13:39:41;21.74;53.06
31443;SHT31;18065;55.876;9.830;2023-11-19T13:42:10;21.73;53.14
31443;SHT31;18065;55.876;9.830;2023-11-19T13:44:39;21.73;53.23
31443;SHT31;18065;55.876;9.830;2023-11-19T13:47:09;21.71;53.37
31443;SHT31;18065;55.876;9.830;2023-11-19T13:49:39;21.70;53.38
31443;SHT31;18065;55.876;9.830;2023-11-19T13:52:08;21.69;53.45
31443;SHT31;18065;55.876;9.830;2023-11-19T13:54:39;21.67;53.48
31443;SHT31;18065;55.876;9.830;2023-11-19T13:57:08;21.66;53.53
31443;SHT31;18065;55.876;9.830;2023-11-19T13:59:39;21.65;53.73
31443;SHT31;18065;55.876;9.830;2023-11-19T14:02:08;21.62;53.72
31443;SHT31;18065;55.876;9.830;2023-11-19T14:04:37;21.92;53.27
31443;SHT31;18065;55.876;9.830;2023-11-19T14:07:07;22.17;52.55
31443;SHT31;18065;55.876;9.830;2023-11-19T14:09:35;22.28;52.23
31443;SHT31;18065;55.876;9.830;2023-11-19T14:12:07;22.37;52.13
31443;SHT31;18065;55.876;9.830;2023-11-19T14:14:38;22.38;52.16
31443;SHT31;18065;55.876;9.830;2023-11-19T14:17:08;22.38;52.20
31443;SHT31;18065;55.876;9.830;2023-11-19T14:19:36;22.38;52.25
31443;SHT31;18065;55.876;9.830;2023-11-19T14:22:05;22.35;52.27
31443;SHT31;18065;55.876;9.830;2023-11-19T14:24:34;22.34;52.38
31443;SHT31;18065;55.876;9.830;2023-11-19T14:27:06;22.31;52.47
31443;SHT31;18065;55.876;9.830;2023-11-19T14:29:34;22.27;52.52
31443;SHT31;18065;55.876;9.830;2023-11-19T14:32:03;22.25;52.68
31443;SHT31;18065;55.876;9.830;2023-11-19T14:34:32;22.20;52.84
31443;SHT31;18065;55.876;9.830;2023-11-19T14:37:01;22.18;52.92
31443;SHT31;18065;55.876;9.830;2023-11-19T14:39:30;22.17;53.05
31443;SHT31;18065;55.876;9.830;2023-11-19T14:41:59;22.14;53.02
31443;SHT31;18065;55.876;9.830;2023-11-19T14:44:33;22.11;53.11
31443;SHT31;18065;55.876;9.830;2023-11-19T14:47:02;22.07;53.14
31443;SHT31;18065;55.876;9.830;2023-11-19T14:49:30;22.08;53.19
31443;SHT31;18065;55.876;9.830;2023-11-19T14:51:59;22.07;53.25
31443;SHT31;18065;55.876;9.830;2023-11-19T14:54:29;22.03;53.35
31443;SHT31;18065;55.876;9.830;2023-11-19T14:56:57;22.03;53.44
31443;SHT31;18065;55.876;9.830;2023-11-19T14:59:27;22.00;53.42
31443;SHT31;18065;55.876;9.830;2023-11-19T15:01:58;21.97;53.49
31443;SHT31;18065;55.876;9.830;2023-11-19T15:04:28;21.94;53.53
31443;SHT31;18065;55.876;9.830;2023-11-19T15:06:57;21.93;53.60
31443;SHT31;18065;55.876;9.830;2023-11-19T15:09:26;21.93;53.66
31443;SHT31;18065;55.876;9.830;2023-11-19T15:11:55;21.89;53.84
31443;SHT31;18065;55.876;9.830;2023-11-19T15:14:25;21.89;53.80
31443;SHT31;18065;55.876;9.830;2023-11-19T15:16:54;21.87;53.90
31443;SHT31;18065;55.876;9.830;2023-11-19T15:19:26;21.84;54.04
31443;SHT31;18065;55.876;9.830;2023-11-19T15:21:55;21.83;54.17
31443;SHT31;18065;55.876;9.830;2023-11-19T15:24:23;21.83;54.16
31443;SHT31;18065;55.876;9.830;2023-11-19T15:26:54;21.76;54.24
31443;SHT31;18065;55.876;9.830;2023-11-19T15:29:24;21.76;54.24
31443;SHT31;18065;55.876;9.830;2023-11-19T15:31:54;21.74;54.31
31443;SHT31;18065;55.876;9.830;2023-11-19T15:34:22;21.73;54.48
31443;SHT31;18065;55.876;9.830;2023-11-19T15:36:54;21.69;54.41
31443;SHT31;18065;55.876;9.830;2023-11-19T15:39:23;21.70;54.47
31443;SHT31;18065;55.876;9.830;2023-11-19T15:41:52;21.67;54.56
31443;SHT31;18065;55.876;9.830;2023-11-19T15:44:23;21.65;54.74
31443;SHT31;18065;55.876;9.830;2023-11-19T15:46:52;21.65;54.70
31443;SHT31;18065;55.876;9.830;2023-11-19T15:49:21;21.69;54.49